Time;durP1;ratioP1;P1;durP2;ratioP2;P2;SDS_P1;SDS_P2;PMS_P1;PMS_P2;Temp;Humidity;BMP_temperature;BMP_pressure;BME280_temperature;BME280_humidity;BME280_pressure;Samples;Min_cycle;Max_cycle;Signal;HPM_P1;HPM_P2
2022/03/08 00:00:44;;;;;;;18.20;12.40;;;;;;;-2.87;71.25;97335.94;109762;1250;60551;-61
2022/03/08 00:03:14;;;;;;;21.60;13.10;;;;;;;-2.83;70.55;97337.73;109769;1251;70687;-62
2022/03/08 00:05:45;;;;;;;20.00;11.40;;;;;;;-2.80;70.50;97339.05;109831;1251;68681;-62
2022/03/08 00:08:15;;;;;;;19.30;11.40;;;;;;;-2.77;70.31;97340.17;109693;1251;68459;-61
2022/03/08 00:10:46;;;;;;;19.70;12.20;;;;;;;-2.75;70.41;97340.98;109865;1251;60544;-61
2022/03/08 00:13:16;;;;;;;21.80;12.10;;;;;;;-2.74;72.63;97340.61;109720;1251;60514;-61
2022/03/08 00:15:46;;;;;;;18.40;10.60;;;;;;;-2.72;71.14;97344.84;109641;1251;72462;-62
2022/03/08 00:18:17;;;;;;;;;;;;;;;-2.70;71.67;97342.25;109834;1251;68559;-62
2022/03/08 00:20:46;;;;;;;;;;;;;;;-2.70;71.75;97343.95;109706;1251;68686;-61
2022/03/08 00:23:16;;;;;;;27.60;14.60;;;;;;;-2.71;71.29;97344.31;109827;1251;60525;-61
2022/03/08 00:25:46;;;;;;;23.20;13.20;;;;;;;-2.72;70.68;97345.19;109610;1250;60876;-60
2022/03/08 00:28:16;;;;;;;37.80;20.00;;;;;;;-2.75;73.73;97344.58;109863;1251;72241;-63
2022/03/08 00:31:03;;;;;;;41.10;20.50;;;;;;;-2.82;74.94;97344.70;109668;1251;69343;-62
2022/03/08 00:33:35;;;;;;;42.70;22.00;;;;;;;-2.93;76.17;97344.27;109600;1251;68671;-60
2022/03/08 00:36:05;;;;;;;41.30;22.40;;;;;;;-3.09;77.29;97344.05;109588;1251;60546;-64
2022/03/08 00:38:35;;;;;;;;;;;;;;;-3.22;78.11;97341.24;109605;1252;60560;-65
2022/03/08 00:41:05;;;;;;;47.20;25.20;;;;;;;-3.36;79.47;97339.14;109641;1251;71547;-63
2022/03/08 00:43:37;;;;;;;47.00;22.90;;;;;;;-3.57;80.45;97335.07;109554;1251;68722;-63
2022/03/08 00:46:07;;;;;;;54.40;27.00;;;;;;;-3.61;81.03;97332.93;109712;1251;68606;-67
2022/03/08 00:48:37;;;;;;;45.90;24.70;;;;;;;-3.71;81.07;97329.70;109662;1251;60548;-65
2022/03/08 00:51:08;;;;;;;40.40;20.10;;;;;;;-3.69;80.38;97326.93;109769;1251;60543;-64
2022/03/08 00:53:39;;;;;;;38.60;20.50;;;;;;;-3.67;79.47;97326.56;109631;1253;72433;-64
2022/03/08 00:56:09;;;;;;;46.40;25.30;;;;;;;-3.71;79.94;97321.87;109908;1251;68833;-61
2022/03/08 00:58:41;;;;;;;51.40;25.80;;;;;;;-3.78;81.35;97325.73;109759;1251;69438;-64
2022/03/08 01:01:11;;;;;;;49.40;26.70;;;;;;;-3.89;81.98;97326.77;109648;1251;60572;-61
2022/03/08 01:03:41;;;;;;;49.50;25.50;;;;;;;-3.94;82.22;97327.20;109785;1251;60502;-62
2022/03/08 01:06:11;;;;;;;53.80;29.20;;;;;;;-4.03;82.79;97326.02;109730;1251;72401;-61
2022/03/08 01:08:43;;;;;;;56.00;26.40;;;;;;;-4.15;83.26;97324.98;109858;1250;68205;-62
2022/03/08 01:11:12;;;;;;;55.90;28.60;;;;;;;-4.24;83.89;97323.09;109839;1250;69214;-62
2022/03/08 01:13:43;;;;;;;54.60;27.50;;;;;;;-4.31;84.16;97323.19;109829;1251;60570;-66
2022/03/08 01:16:12;;;;;;;56.80;25.60;;;;;;;-4.29;84.40;97324.19;109530;1251;60522;-64
2022/03/08 01:18:43;;;;;;;56.60;25.90;;;;;;;-4.25;84.34;97324.47;109643;1252;72157;-64
2022/03/08 01:21:14;;;;;;;53.70;24.90;;;;;;;-4.24;84.22;97323.95;109764;1250;67785;-61
2022/03/08 01:23:44;;;;;;;55.60;26.00;;;;;;;-4.27;84.00;97324.33;109816;1251;69308;-63
2022/03/08 01:26:15;;;;;;;53.30;26.00;;;;;;;-4.28;83.83;97326.39;109787;1251;60567;-63
2022/03/08 01:28:45;;;;;;;;;;;;;;;-4.32;84.20;97326.61;109868;1251;60494;-63
2022/03/08 01:31:15;;;;;;;56.40;26.60;;;;;;;-4.32;84.31;97330.52;109846;1251;71454;-64
2022/03/08 01:33:45;;;;;;;42.40;21.50;;;;;;;-4.30;84.18;97330.16;109883;1251;67896;-61
2022/03/08 01:36:16;;;;;;;50.80;24.60;;;;;;;-4.27;83.96;97329.42;109751;1251;69368;-62
2022/03/08 01:38:47;;;;;;;47.10;25.00;;;;;;;-4.26;84.02;97325.50;109679;1251;60561;-62
2022/03/08 01:41:18;;;;;;;34.70;19.30;;;;;;;-4.21;83.33;97324.23;109777;1251;60408;-63
2022/03/08 01:43:48;;;;;;;51.80;25.80;;;;;;;-4.17;82.88;97326.03;109651;1251;71432;-63
2022/03/08 01:46:19;;;;;;;52.30;24.50;;;;;;;-4.15;83.05;97328.05;109774;1251;67704;-62
2022/03/08 01:48:53;;;;;;;59.40;26.50;;;;;;;-4.14;82.93;97328.39;109608;1251;68692;-64
2022/03/08 01:51:24;;;;;;;52.10;25.80;;;;;;;-4.11;82.77;97329.86;109838;1251;60560;-63
2022/03/08 01:53:54;;;;;;;;;;;;;;;-4.07;82.67;97333.37;109822;1251;60510;-65
2022/03/08 01:56:24;;;;;;;43.50;22.70;;;;;;;-4.04;82.66;97334.70;109767;1250;72148;-67
2022/03/08 01:58:54;;;;;;;;;;;;;;;-4.01;82.59;97331.41;109784;1251;68836;-65
2022/03/08 02:01:24;;;;;;;39.10;19.30;;;;;;;-3.99;82.60;97327.64;109742;1251;69242;-62
2022/03/08 02:03:55;;;;;;;46.30;23.10;;;;;;;-3.96;81.98;97327.58;109793;1251;60558;-61
2022/03/08 02:06:27;;;;;;;33.60;18.20;;;;;;;-3.92;81.68;97333.14;109758;1251;60535;-61
2022/03/08 02:08:57;;;;;;;43.40;21.40;;;;;;;-3.89;80.51;97332.73;109596;1251;72390;-62
2022/03/08 02:11:27;;;;;;;42.60;22.00;;;;;;;-3.88;80.57;97333.23;109672;1251;66830;-61
2022/03/08 02:13:57;;;;;;;50.50;23.10;;;;;;;-3.88;80.75;97335.61;109850;1251;68986;-61
2022/03/08 02:16:27;;;;;;;45.80;23.80;;;;;;;-3.90;81.43;97336.50;109661;1251;60499;-61
2022/03/08 02:18:57;;;;;;;54.20;26.00;;;;;;;-3.90;81.33;97337.18;109569;1251;60480;-63
2022/03/08 02:21:33;;;;;;;49.60;24.40;;;;;;;-3.94;81.53;97338.45;109598;1251;71597;-61
2022/03/08 02:24:03;;;;;;;47.70;24.00;;;;;;;-3.94;80.98;97340.80;109638;1251;67714;-62
2022/03/08 02:26:33;;;;;;;44.30;20.60;;;;;;;-3.96;80.58;97337.96;109535;1251;68525;-62
2022/03/08 02:29:08;;;;;;;51.40;25.90;;;;;;;-3.96;80.80;97334.05;109564;1253;60545;-63
2022/03/08 02:31:39;;;;;;;52.90;25.20;;;;;;;-4.08;81.45;97336.79;109816;1251;60542;-64
2022/03/08 02:34:09;;;;;;;55.30;26.40;;;;;;;-4.11;81.85;97334.28;109756;1251;71573;-63
2022/03/08 02:36:41;;;;;;;;;;;;;;;-4.17;81.71;97331.15;109767;1251;67779;-60
2022/03/08 02:39:12;;;;;;;45.20;22.40;;;;;;;-4.11;81.16;97332.58;109664;1251;69509;-63
2022/03/08 02:41:43;;;;;;;54.90;26.00;;;;;;;-4.10;81.49;97334.44;109647;1251;60576;-62
2022/03/08 02:44:13;;;;;;;31.40;17.10;;;;;;;-4.07;81.32;97338.48;108910;1251;835666;-62
2022/03/08 02:46:44;;;;;;;32.60;18.30;;;;;;;-4.02;80.49;97340.27;109432;1251;72377;-60
2022/03/08 02:49:14;;;;;;;23.70;13.20;;;;;;;-3.98;79.97;97346.33;109619;1252;68415;-61
2022/03/08 02:51:44;;;;;;;30.60;17.10;;;;;;;-3.92;79.17;97348.62;109626;1251;69354;-62
2022/03/08 02:54:14;;;;;;;26.70;15.00;;;;;;;-3.88;78.68;97343.11;109542;1254;60945;-62
2022/03/08 02:56:46;;;;;;;28.50;16.20;;;;;;;-3.84;78.53;97343.05;109455;1253;60514;-62
2022/03/08 02:59:23;;;;;;;29.90;15.80;;;;;;;-3.80;78.25;97345.36;109797;1250;72331;-60
2022/03/08 03:01:53;;;;;;;29.00;15.60;;;;;;;-3.77;78.11;97346.52;109476;1253;68514;-63
2022/03/08 03:04:23;;;;;;;35.50;18.20;;;;;;;-3.75;77.95;97348.00;109754;1250;68464;-63
2022/03/08 03:06:54;;;;;;;31.30;18.70;;;;;;;-3.73;77.93;97352.91;109579;1251;60492;-64
2022/03/08 03:09:24;;;;;;;25.70;14.80;;;;;;;-3.72;77.94;97351.35;109662;1251;60547;-63
2022/03/08 03:11:54;;;;;;;20.40;11.00;;;;;;;-3.71;77.75;97347.57;109766;1250;72169;-64
2022/03/08 03:14:25;;;;;;;25.50;14.30;;;;;;;-3.70;77.50;97348.92;109791;1251;68502;-63
2022/03/08 03:16:55;;;;;;;21.80;13.90;;;;;;;-3.69;77.39;97349.09;109624;1251;67488;-61
2022/03/08 03:19:25;;;;;;;23.80;13.70;;;;;;;-3.67;77.12;97352.45;109610;1252;60494;-62
2022/03/08 03:21:56;;;;;;;29.30;15.20;;;;;;;-3.66;76.89;97355.33;109620;1251;60466;-62
2022/03/08 03:24:26;;;;;;;;;;;;;;;-3.65;77.22;97358.73;109827;1250;71624;-61
2022/03/08 03:26:56;;;;;;;44.50;22.10;;;;;;;-3.65;77.93;97363.16;109531;1251;68628;-62
2022/03/08 03:29:27;;;;;;;42.60;22.10;;;;;;;-3.66;78.12;97366.08;109730;1250;69377;-62
2022/03/08 03:31:57;;;;;;;45.00;22.60;;;;;;;-3.67;78.12;97368.63;109545;1250;60572;-62
2022/03/08 03:34:27;;;;;;;;;;;;;;;-3.67;78.25;97369.83;109790;1249;60429;-61
2022/03/08 03:36:57;;;;;;;22.70;12.70;;;;;;;-3.66;77.52;97366.91;109844;1250;71456;-60
2022/03/08 03:39:27;;;;;;;37.10;19.70;;;;;;;-3.63;76.56;97364.48;109637;1251;68046;-62
2022/03/08 03:41:57;;;;;;;35.10;18.60;;;;;;;-3.61;76.52;97364.27;109789;1251;69519;-62
2022/03/08 03:44:27;;;;;;;35.60;18.40;;;;;;;-3.61;77.06;97369.90;109510;1251;60891;-63
2022/03/08 03:46:57;;;;;;;42.30;20.80;;;;;;;-3.63;77.02;97373.85;109690;1251;60899;-64
2022/03/08 03:49:26;;;;;;;30.60;17.10;;;;;;;-3.64;76.77;97374.23;109842;1250;71439;-64
2022/03/08 03:51:56;;;;;;;;;;;;;;;-3.66;76.81;97377.98;109833;1251;66674;-65
2022/03/08 03:54:27;;;;;;;32.80;17.90;;;;;;;-3.66;76.60;97377.81;109797;1250;68545;-64
2022/03/08 03:56:57;;;;;;;46.90;24.40;;;;;;;-3.70;77.98;97381.63;109810;1251;60988;-64
2022/03/08 03:59:26;;;;;;;;;;;;;;;-3.76;78.06;97382.92;109789;1250;60514;-64
2022/03/08 04:01:56;;;;;;;51.30;23.90;;;;;;;-3.78;78.23;97383.82;109766;1251;72376;-61
2022/03/08 04:04:27;;;;;;;46.40;22.80;;;;;;;-3.83;78.57;97385.95;109762;1251;67726;-62
2022/03/08 04:06:56;;;;;;;41.60;20.00;;;;;;;-3.84;78.09;97380.85;109597;1250;67554;-61
2022/03/08 04:09:26;;;;;;;35.40;18.00;;;;;;;-3.82;77.72;97384.58;109492;1251;60543;-61
2022/03/08 04:11:57;;;;;;;31.90;16.40;;;;;;;-3.80;77.39;97384.52;109456;1251;60962;-61
2022/03/08 04:14:27;;;;;;;48.10;23.50;;;;;;;-3.78;77.30;97380.92;109739;1250;72182;-62
2022/03/08 04:16:57;;;;;;;46.50;23.00;;;;;;;-3.78;78.37;97381.96;109699;1250;68574;-61
2022/03/08 04:19:27;;;;;;;48.10;24.90;;;;;;;-3.80;78.66;97383.67;109565;1251;69425;-62
2022/03/08 04:21:57;;;;;;;45.30;24.10;;;;;;;-3.83;78.73;97380.84;109777;1250;60612;-61
2022/03/08 04:24:27;;;;;;;47.20;25.00;;;;;;;-3.88;78.46;97382.44;109797;1250;60499;-60
2022/03/08 04:26:56;;;;;;;46.70;23.70;;;;;;;-3.92;78.91;97380.98;109633;1251;72173;-62
2022/03/08 04:29:26;;;;;;;47.60;23.60;;;;;;;-3.97;79.43;97377.48;109751;1250;68459;-61
2022/03/08 04:31:55;;;;;;;39.10;20.90;;;;;;;-4.00;79.66;97380.92;109641;1249;70144;-61
2022/03/08 04:34:26;;;;;;;34.50;18.60;;;;;;;-4.00;79.21;97380.92;109747;1250;60483;-62
2022/03/08 04:36:55;;;;;;;41.90;21.70;;;;;;;-3.98;78.57;97383.95;109448;1251;60546;-61
2022/03/08 04:39:25;;;;;;;33.60;17.90;;;;;;;-3.96;78.74;97384.98;109700;1251;72239;-61
2022/03/08 04:41:55;;;;;;;44.30;24.40;;;;;;;-3.93;78.18;97384.89;109665;1253;67732;-61
2022/03/08 04:44:24;;;;;;;50.40;24.60;;;;;;;-3.91;77.64;97387.42;109780;1250;69715;-63
2022/03/08 04:46:54;;;;;;;29.50;16.70;;;;;;;-3.89;77.35;97394.71;109760;1250;60498;-61
2022/03/08 04:49:24;;;;;;;34.30;20.40;;;;;;;-3.88;77.58;97392.67;109840;1250;60502;-61
2022/03/08 04:51:54;;;;;;;32.60;16.90;;;;;;;-3.86;77.69;97393.13;109858;1251;71390;-63
2022/03/08 04:54:24;;;;;;;35.10;19.60;;;;;;;-3.83;77.29;97399.05;109694;1251;68624;-62
2022/03/08 04:56:54;;;;;;;32.80;18.90;;;;;;;-3.83;77.14;97397.02;109741;1250;69613;-61
2022/03/08 04:59:23;;;;;;;28.30;16.10;;;;;;;-3.82;77.28;97399.55;109721;1251;60548;-61
2022/03/08 05:01:52;;;;;;;22.70;13.80;;;;;;;-3.80;76.94;97400.88;109799;1250;60505;-60
2022/03/08 05:04:22;;;;;;;23.20;12.00;;;;;;;-3.79;76.80;97396.95;109845;1250;72354;-60
2022/03/08 05:06:52;;;;;;;25.40;16.10;;;;;;;-3.77;76.42;97397.09;109783;1250;68706;-61
2022/03/08 05:09:21;;;;;;;28.10;16.40;;;;;;;-3.75;76.16;97397.73;109616;1250;69453;-64
2022/03/08 05:11:51;;;;;;;34.70;18.80;;;;;;;-3.74;75.89;97402.66;109614;1251;60602;-59
2022/03/08 05:14:20;;;;;;;32.80;18.20;;;;;;;-3.74;76.68;97397.38;109618;1251;60502;-60
2022/03/08 05:16:51;;;;;;;31.70;18.70;;;;;;;-3.72;75.99;97394.45;109511;1251;70851;-60
2022/03/08 05:19:21;;;;;;;34.80;18.20;;;;;;;-3.70;75.87;97399.33;109622;1250;68393;-61
2022/03/08 05:21:50;;;;;;;26.80;15.90;;;;;;;-3.69;75.71;97400.70;109695;1250;68694;-65
2022/03/08 05:24:20;;;;;;;27.60;15.90;;;;;;;-3.68;75.74;97401.70;109705;1251;60485;-63
2022/03/08 05:26:50;;;;;;;51.90;25.10;;;;;;;-3.66;75.88;97402.34;109613;1251;60558;-63
2022/03/08 05:29:28;;;;;;;34.00;18.10;;;;;;;-3.66;76.92;97404.55;109711;1250;71858;-63
2022/03/08 05:32:05;;;;;;;27.40;15.20;;;;;;;-3.63;75.98;97402.11;109767;1250;68203;-64
2022/03/08 05:34:35;;;;;;;25.80;14.20;;;;;;;-3.59;75.47;97402.57;109578;1251;69465;-65
2022/03/08 05:37:04;;;;;;;48.00;24.20;;;;;;;-3.56;75.99;97406.28;109826;1250;60536;-62
2022/03/08 05:39:34;;;;;;;47.00;24.20;;;;;;;-3.63;77.36;97406.39;109716;1250;60681;-61
2022/03/08 05:42:04;;;;;;;36.10;19.30;;;;;;;-3.63;77.26;97404.19;109777;1250;72552;-61
2022/03/08 05:44:34;;;;;;;47.80;24.40;;;;;;;-3.63;77.46;97405.19;109773;1250;68607;-61
2022/03/08 05:47:04;;;;;;;45.70;24.40;;;;;;;-3.65;77.87;97410.16;109612;1251;68728;-63
2022/03/08 05:49:34;;;;;;;47.30;24.20;;;;;;;-3.56;77.19;97403.89;109790;1250;60561;-62
2022/03/08 05:52:04;;;;;;;34.50;20.40;;;;;;;-3.48;76.68;97403.93;109699;1251;60847;-61
2022/03/08 05:54:33;;;;;;;62.90;30.00;;;;;;;-3.41;76.76;97403.46;109705;1251;72402;-64
2022/03/08 05:57:03;;;;;;;56.50;28.80;;;;;;;-3.43;78.00;97404.19;109691;1253;69472;-63
2022/03/08 05:59:33;;;;;;;51.60;28.00;;;;;;;-3.43;78.13;97402.82;109809;1251;68757;-65
2022/03/08 06:02:02;;;;;;;51.90;29.10;;;;;;;-3.43;78.03;97399.58;109678;1251;60589;-66
2022/03/08 06:04:32;;;;;;;51.10;27.50;;;;;;;-3.53;78.24;97394.81;109774;1250;60476;-66
2022/03/08 06:07:02;;;;;;;56.90;30.50;;;;;;;-3.50;78.32;97392.02;109824;1250;71375;-61
2022/03/08 06:09:31;;;;;;;56.40;30.50;;;;;;;-3.45;78.36;97390.24;109700;1250;67069;-62
2022/03/08 06:12:03;;;;;;;53.70;28.30;;;;;;;-3.39;78.23;97388.77;109796;1250;69513;-62
2022/03/08 06:14:34;;;;;;;53.80;28.00;;;;;;;-3.19;77.50;97395.58;109810;1250;60540;-64
2022/03/08 06:17:05;;;;;;;37.30;21.90;;;;;;;-2.98;77.02;97403.88;109784;1251;60490;-63
2022/03/08 06:19:35;;;;;;;30.00;17.10;;;;;;;-2.66;76.83;97411.58;109829;1250;72146;-61
2022/03/08 06:22:05;;;;;;;39.30;21.70;;;;;;;-2.35;76.36;97412.14;109824;1250;67826;-59
2022/03/08 06:24:34;;;;;;;38.50;22.00;;;;;;;-2.13;75.79;97414.90;109708;1250;70150;-63
2022/03/08 06:27:08;;;;;;;39.70;20.60;;;;;;;-2.10;72.83;97418.27;109609;1251;60569;-62
2022/03/08 06:29:43;;;;;;;34.90;20.20;;;;;;;-1.99;72.65;97426.04;109670;1250;60452;-61
2022/03/08 06:32:21;;;;;;;43.70;24.70;;;;;;;-1.83;73.35;97428.75;109630;1250;72138;-61
2022/03/08 06:34:53;;;;;;;47.10;28.10;;;;;;;-1.72;72.25;97424.05;109836;1250;68607;-61
2022/03/08 06:37:23;;;;;;;50.10;26.40;;;;;;;-1.71;71.22;97423.33;109769;1250;69712;-61
2022/03/08 06:39:52;;;;;;;48.50;28.10;;;;;;;-1.79;70.94;97410.04;109754;1250;60971;-61
2022/03/08 06:42:22;;;;;;;48.50;25.10;;;;;;;-2.09;71.39;97411.23;109847;1250;60557;-61
2022/03/08 06:44:51;;;;;;;37.50;20.30;;;;;;;-1.98;71.82;97424.98;109627;1250;72404;-62
2022/03/08 06:47:21;;;;;;;51.60;26.50;;;;;;;-1.80;71.86;97447.31;109664;1250;68082;-63
2022/03/08 06:49:51;;;;;;;53.40;28.20;;;;;;;-1.72;72.24;97461.64;109756;1250;69173;-62
2022/03/08 06:52:21;;;;;;;44.60;25.00;;;;;;;-1.78;72.63;97470.15;109700;1251;60552;-63
2022/03/08 06:55:01;;;;;;;45.60;25.40;;;;;;;-1.73;72.58;97473.11;109624;1250;60508;-61
2022/03/08 06:57:37;;;;;;;36.90;19.50;;;;;;;-1.68;72.58;97469.58;109724;1250;72320;-61
2022/03/08 07:00:08;;;;;;;47.70;28.00;;;;;;;-1.52;72.27;97469.89;109716;1249;68039;-62
2022/03/08 07:02:37;;;;;;;55.20;30.70;;;;;;;-1.52;72.26;97473.13;109722;1250;69573;-61
2022/03/08 07:05:11;;;;;;;53.00;29.70;;;;;;;-1.59;72.50;97475.86;109731;1249;60507;-65
2022/03/08 07:07:41;;;;;;;38.70;21.80;;;;;;;-1.54;72.60;97470.43;109523;1253;60422;-61
2022/03/08 07:10:10;;;;;;;51.40;29.90;;;;;;;-1.43;72.04;97466.59;109799;1250;72658;-62
2022/03/08 07:12:39;;;;;;;42.30;22.40;;;;;;;-1.36;71.48;97470.19;109823;1250;68604;-63
2022/03/08 07:15:09;;;;;;;43.80;25.10;;;;;;;-1.35;71.48;97486.39;109761;1250;68654;-60
2022/03/08 07:17:40;;;;;;;42.00;22.50;;;;;;;-1.36;71.22;97495.64;109677;1250;60526;-62
2022/03/08 07:20:10;;;;;;;39.90;24.80;;;;;;;-1.28;71.36;97486.89;109847;1250;60558;-64
2022/03/08 07:22:39;;;;;;;32.30;18.50;;;;;;;-1.16;70.79;97481.64;109688;1250;71617;-65
2022/03/08 07:25:11;;;;;;;36.40;20.10;;;;;;;-1.00;70.34;97492.38;109636;1253;67826;-64
2022/03/08 16:27:16;;;;;;;9.00;5.60;;;;;;;1.54;51.01;97347.73;109802;1250;60477;-65
2022/03/08 16:29:46;;;;;;;8.50;5.50;;;;;;;1.48;50.79;97348.30;109859;1250;60491;-64
2022/03/08 16:32:16;;;;;;;6.40;4.40;;;;;;;1.44;50.78;97347.77;109745;1250;71676;-66
2022/03/08 16:34:44;;;;;;;7.20;5.00;;;;;;;1.40;50.73;97346.55;109846;1249;69300;-67
2022/03/08 16:37:14;;;;;;;5.40;4.20;;;;;;;1.37;50.39;97350.56;109881;1249;68667;-67
2022/03/08 16:39:43;;;;;;;5.50;4.50;;;;;;;1.37;50.57;97358.50;109985;1250;60541;-65
2022/03/08 16:42:14;;;;;;;9.20;5.30;;;;;;;1.29;51.61;97356.89;109952;1250;60580;-65
2022/03/08 16:44:45;;;;;;;7.10;4.50;;;;;;;1.21;51.80;97349.65;109548;1253;72392;-64
2022/03/08 16:47:14;;;;;;;7.80;4.80;;;;;;;1.12;51.97;97352.20;109795;1250;67826;-63
2022/03/08 16:49:43;;;;;;;7.30;4.80;;;;;;;0.97;52.67;97349.98;109973;1249;70091;-64
2022/03/08 16:52:12;;;;;;;5.60;3.60;;;;;;;0.96;51.60;97347.11;110054;1249;60568;-64
2022/03/08 16:54:42;;;;;;;8.40;5.30;;;;;;;0.90;51.19;97346.30;109898;1250;60551;-64
2022/03/08 16:57:11;;;;;;;7.00;5.10;;;;;;;0.82;51.74;97347.09;110064;1249;72335;-63
2022/03/08 16:59:40;;;;;;;7.00;4.60;;;;;;;0.73;51.64;97346.36;110001;1248;67902;-62
2022/03/08 17:02:12;;;;;;;10.70;7.30;;;;;;;0.66;52.48;97343.19;110037;1249;69466;-62
2022/03/08 17:04:41;;;;;;;8.10;6.10;;;;;;;0.59;52.46;97348.73;109827;1250;60482;-65
2022/03/08 17:07:11;;;;;;;5.90;4.70;;;;;;;0.49;53.97;97348.55;109811;1250;60479;-65
2022/03/08 17:09:40;;;;;;;6.20;5.10;;;;;;;0.40;52.33;97350.06;109820;1249;72570;-63
2022/03/08 17:12:12;;;;;;;5.70;4.10;;;;;;;0.30;52.36;97354.50;109764;1250;68766;-64
2022/03/08 17:14:41;;;;;;;4.90;3.60;;;;;;;0.20;52.05;97356.69;109893;1250;69382;-63
2022/03/08 17:17:10;;;;;;;6.70;4.20;;;;;;;0.15;52.06;97357.90;109915;1249;60495;-64
2022/03/08 17:19:40;;;;;;;8.00;5.50;;;;;;;0.12;53.59;97357.83;109827;1249;60486;-62
2022/03/08 17:22:12;;;;;;;7.20;5.10;;;;;;;0.06;54.06;97360.59;109826;1250;72442;-64
2022/03/08 17:24:41;;;;;;;7.70;4.80;;;;;;;-0.03;53.50;97355.23;109749;1250;67901;-65
2022/03/08 17:27:12;;;;;;;9.00;5.50;;;;;;;-0.10;53.51;97360.40;109773;1250;68777;-65
2022/03/08 17:29:41;;;;;;;;;;;;;;;-0.16;53.82;97360.40;110008;1250;60504;-63
2022/03/08 17:32:10;;;;;;;7.20;5.20;;;;;;;-0.25;54.72;97363.27;109928;1250;60482;-66
2022/03/08 17:34:39;;;;;;;8.20;5.30;;;;;;;-0.34;54.29;97363.70;109821;1250;73132;-62
2022/03/08 17:37:08;;;;;;;9.70;4.40;;;;;;;-0.41;54.78;97362.56;109860;1250;67836;-66
2022/03/08 17:39:38;;;;;;;9.30;5.90;;;;;;;-0.46;54.18;97368.17;109627;1250;68638;-66
2022/03/08 17:42:07;;;;;;;10.20;5.90;;;;;;;-0.50;54.37;97367.11;109861;1250;60568;-65
2022/03/08 17:44:36;;;;;;;9.90;5.80;;;;;;;-0.51;55.12;97368.33;109943;1248;60543;-64
2022/03/08 17:47:06;;;;;;;10.50;6.50;;;;;;;-0.54;54.92;97366.88;109783;1249;72352;-63
2022/03/08 17:49:35;;;;;;;7.20;5.20;;;;;;;-0.58;55.38;97371.27;109847;1250;68831;-64
2022/03/08 17:52:05;;;;;;;8.00;5.80;;;;;;;-0.63;55.21;97371.58;109783;1249;69335;-64
2022/03/08 17:54:35;;;;;;;9.10;6.10;;;;;;;-0.69;56.36;97377.75;109883;1250;60480;-66
2022/03/08 17:57:04;;;;;;;13.30;8.10;;;;;;;-0.74;57.00;97377.55;109655;1250;60545;-65
2022/03/08 17:59:33;;;;;;;40.60;23.90;;;;;;;-0.77;57.08;97383.97;109904;1248;73087;-60
2022/03/08 18:02:03;;;;;;;37.60;23.80;;;;;;;-0.73;57.62;97387.61;109956;1249;68031;-62
2022/03/08 18:04:32;;;;;;;25.90;17.20;;;;;;;-0.75;57.85;97387.98;109911;1249;69447;-61
2022/03/08 18:07:03;;;;;;;25.20;16.30;;;;;;;-0.79;58.07;97386.40;109888;1249;60547;-66
2022/03/08 18:09:33;;;;;;;22.80;14.70;;;;;;;-0.87;58.24;97386.31;109834;1250;60478;-63
2022/03/08 18:12:03;;;;;;;28.40;18.50;;;;;;;-0.96;58.08;97384.14;109979;1249;72411;-66
2022/03/08 18:14:36;;;;;;;34.40;21.00;;;;;;;-1.00;58.83;97382.39;109809;1249;67818;-65
2022/03/08 18:17:05;;;;;;;27.10;17.00;;;;;;;-1.08;59.53;97383.08;109708;1250;69350;-66
2022/03/08 18:19:35;;;;;;;26.60;16.10;;;;;;;-1.16;59.65;97378.86;109813;1250;60492;-65
2022/03/08 18:22:04;;;;;;;29.20;18.30;;;;;;;-1.26;59.20;97378.95;109921;1249;60495;-67
2022/03/08 18:24:38;;;;;;;22.80;15.20;;;;;;;-1.33;59.17;97374.53;109910;1249;72240;-65
2022/03/08 18:27:07;;;;;;;28.00;16.30;;;;;;;-1.35;60.45;97376.27;109912;1249;68025;-63
2022/03/08 18:29:37;;;;;;;27.10;17.20;;;;;;;-1.37;61.17;97373.45;109757;1250;68975;-64
2022/03/08 18:32:07;;;;;;;26.40;15.10;;;;;;;-1.44;61.30;97371.39;109925;1250;60554;-62
2022/03/08 18:34:38;;;;;;;25.10;16.80;;;;;;;-1.51;62.11;97374.13;109796;1250;60724;-65
2022/03/08 18:37:07;;;;;;;26.20;18.00;;;;;;;-1.61;61.98;97376.95;109799;1250;71584;-63
2022/03/08 18:39:37;;;;;;;24.60;14.60;;;;;;;-1.75;62.00;97377.98;109929;1250;68679;-63
2022/03/08 18:42:07;;;;;;;22.90;15.10;;;;;;;-1.90;63.55;97378.85;109853;1250;68658;-62
2022/03/08 18:44:36;;;;;;;26.70;16.70;;;;;;;-2.03;63.66;97380.52;109775;1250;60528;-65
2022/03/08 18:47:05;;;;;;;20.30;13.80;;;;;;;-2.15;64.59;97388.14;109771;1250;60516;-63
2022/03/08 18:49:36;;;;;;;28.60;17.20;;;;;;;-2.24;62.81;97382.38;109874;1250;71644;-64
2022/03/08 18:52:05;;;;;;;21.60;14.40;;;;;;;-2.30;63.33;97381.48;109959;1248;68563;-64
2022/03/08 18:54:35;;;;;;;42.50;25.50;;;;;;;-2.34;63.57;97383.79;109934;1250;69548;-62
2022/03/08 18:57:04;;;;;;;35.20;20.40;;;;;;;-2.39;62.90;97386.95;109812;1250;60558;-63
2022/03/08 18:59:40;;;;;;;34.30;20.70;;;;;;;-2.45;64.74;97386.92;109913;1249;60466;-63
2022/03/08 19:02:09;;;;;;;20.30;12.90;;;;;;;-2.55;64.88;97384.41;109925;1250;72293;-64
2022/03/08 19:04:38;;;;;;;21.20;14.10;;;;;;;-2.57;63.84;97383.61;109919;1249;66816;-65
2022/03/08 19:07:07;;;;;;;19.30;12.60;;;;;;;-2.60;66.19;97380.92;109878;1249;70305;-63
2022/03/08 19:09:36;;;;;;;23.30;15.60;;;;;;;-2.59;64.18;97383.29;109966;1250;60546;-65
2022/03/08 19:12:06;;;;;;;17.80;12.30;;;;;;;-2.61;64.51;97383.01;109890;1250;60910;-62
2022/03/08 19:14:35;;;;;;;30.40;18.10;;;;;;;-2.64;64.52;97381.35;109936;1248;72968;-67
2022/03/08 19:17:04;;;;;;;24.10;14.80;;;;;;;-2.62;64.65;97380.45;109843;1250;67931;-64
2022/03/08 19:19:38;;;;;;;30.70;19.00;;;;;;;-2.53;66.60;97375.33;109943;1249;69639;-62
2022/03/08 19:22:21;;;;;;;41.70;24.20;;;;;;;-2.49;66.21;97378.47;109753;1250;60464;-67
2022/03/08 19:24:51;;;;;;;42.50;25.20;;;;;;;-2.52;66.10;97374.97;109736;1249;60492;-65
2022/03/08 19:27:20;;;;;;;45.90;28.20;;;;;;;-2.57;66.84;97377.45;110015;1248;72390;-63
2022/03/08 19:29:49;;;;;;;36.50;22.60;;;;;;;-2.68;66.84;97375.29;109961;1250;68634;-66
2022/03/08 19:32:19;;;;;;;41.80;24.10;;;;;;;-2.76;67.14;97375.80;109807;1249;69433;-63
2022/03/08 19:34:48;;;;;;;33.30;22.70;;;;;;;-2.84;66.96;97380.90;109916;1249;60554;-64
2022/03/08 19:37:18;;;;;;;40.50;24.60;;;;;;;-2.92;67.10;97377.33;109734;1250;60501;-64
2022/03/08 19:39:49;;;;;;;35.50;19.70;;;;;;;-3.00;67.48;97374.42;109809;1250;73069;-63
2022/03/08 19:42:20;;;;;;;37.10;21.80;;;;;;;-3.05;67.72;97374.00;109922;1250;68615;-65
2022/03/08 19:44:49;;;;;;;40.00;25.20;;;;;;;-3.12;68.90;97372.41;109917;1249;70066;-63
2022/03/08 19:47:19;;;;;;;33.60;21.20;;;;;;;-3.25;69.82;97373.85;109917;1250;60515;-64
2022/03/08 19:49:48;;;;;;;23.60;15.90;;;;;;;-3.34;69.28;97374.53;109919;1250;60495;-62
2022/03/08 19:52:17;;;;;;;24.90;15.70;;;;;;;-3.43;68.69;97374.19;109713;1250;72930;-63
2022/03/08 19:54:46;;;;;;;32.90;20.50;;;;;;;-3.50;67.74;97371.58;109805;1250;68585;-65
2022/03/08 19:57:15;;;;;;;25.50;15.80;;;;;;;-3.58;69.29;97371.55;109870;1250;70015;-65
2022/03/08 19:59:45;;;;;;;35.30;20.30;;;;;;;-3.66;69.22;97373.05;109876;1249;60491;-64
2022/03/08 20:02:17;;;;;;;30.00;19.80;;;;;;;-3.72;70.57;97375.36;109913;1250;60483;-66
2022/03/08 20:04:47;;;;;;;25.90;17.00;;;;;;;-3.74;69.43;97368.60;109780;1250;72330;-64
2022/03/08 20:07:19;;;;;;;25.40;15.00;;;;;;;-3.71;68.73;97369.73;109883;1250;67855;-64
2022/03/08 20:09:48;;;;;;;31.90;18.40;;;;;;;-3.64;69.10;97361.60;109871;1249;69520;-65
2022/03/08 20:12:19;;;;;;;;;;;;;;;-3.55;69.82;97358.56;109974;1250;60810;-63
2022/03/08 20:14:48;;;;;;;31.00;18.70;;;;;;;-3.58;69.08;97355.55;109875;1249;60530;-64
2022/03/08 20:17:17;;;;;;;29.70;20.00;;;;;;;-3.64;68.58;97359.23;109691;1250;72522;-63
2022/03/08 20:19:46;;;;;;;43.30;26.50;;;;;;;-3.61;69.91;97354.40;109845;1250;68625;-62
2022/03/08 20:22:17;;;;;;;44.20;23.60;;;;;;;-3.58;70.78;97354.70;109960;1249;69998;-62
2022/03/08 20:24:46;;;;;;;51.30;32.00;;;;;;;-3.61;71.69;97359.16;109945;1249;60488;-63
2022/03/08 20:27:16;;;;;;;42.80;28.30;;;;;;;-3.72;72.38;97361.40;109768;1250;60529;-65